Time;durP1;ratioP1;P1;durP2;ratioP2;P2;SDS_P1;SDS_P2;PMS_P1;PMS_P2;Temp;Humidity;BMP_temperature;BMP_pressure;BME280_temperature;BME280_humidity;BME280_pressure;Samples;Min_cycle;Max_cycle;Signal;HPM_P1;HPM_P2
2021/10/09 00:01:28;;;;;;;7.10;5.70;;;;;;;;;;5034621;28;20210;-46
2021/10/09 00:03:54;;;;;;;5.80;5.20;;;;;;;;;;5027827;28;20192;-46
2021/10/09 00:06:20;;;;;;;6.10;5.03;;;;;;;;;;5018012;28;20184;-46
2021/10/09 00:08:47;;;;;;;5.88;5.28;;;;;;;;;;5036283;28;20624;-46
2021/10/09 00:11:34;;;;;;;5.47;4.82;;;;;;;;;;5030977;28;20455;-46
2021/10/09 00:14:00;;;;;;;5.50;4.95;;;;;;;;;;5030789;28;20172;-46
2021/10/09 00:16:26;;;;;;;5.13;4.57;;;;;;;;;;5016628;28;20169;-46
2021/10/09 00:18:52;;;;;;;6.47;5.88;;;;;;;;;;5016286;28;20230;-46
2021/10/09 00:21:18;;;;;;;5.13;4.57;;;;;;;;;;5017665;28;20176;-46
2021/10/09 00:23:44;;;;;;;5.15;4.60;;;;;;;;;;5016201;28;20177;-46
2021/10/09 00:26:10;;;;;;;6.05;5.05;;;;;;;;;;5022956;28;20202;-46
2021/10/09 00:28:36;;;;;;;5.82;4.63;;;;;;;;;;5036115;28;20221;-46
2021/10/09 00:31:02;;;;;;;5.15;4.65;;;;;;;;;;5023376;28;20499;-46
2021/10/09 00:33:28;;;;;;;5.85;5.15;;;;;;;;;;5031362;28;20187;-46
2021/10/09 00:35:54;;;;;;;5.15;4.65;;;;;;;;;;5033740;28;20559;-46
2021/10/09 00:38:20;;;;;;;5.03;4.50;;;;;;;;;;5035778;28;20230;-46
2021/10/09 00:40:46;;;;;;;5.53;4.50;;;;;;;;;;5036011;28;20250;-46
2021/10/09 00:43:12;;;;;;;7.03;4.97;;;;;;;;;;5016744;28;20482;-46
2021/10/09 00:45:38;;;;;;;4.90;4.40;;;;;;;;;;5016271;28;20184;-46
2021/10/09 00:48:04;;;;;;;5.15;4.65;;;;;;;;;;5019842;28;20228;-46
2021/10/09 00:50:30;;;;;;;5.57;4.85;;;;;;;;;;5035932;28;20191;-46
2021/10/09 00:52:57;;;;;;;6.85;5.00;;;;;;;;;;5018908;28;20486;-46
2021/10/09 00:55:24;;;;;;;5.45;4.95;;;;;;;;;;5018311;28;20180;-46
2021/10/09 00:57:51;;;;;;;5.10;4.57;;;;;;;;;;5030307;28;20225;-46
2021/10/09 01:00:17;;;;;;;4.53;4.13;;;;;;;;;;5015799;28;20224;-46
2021/10/09 01:02:43;;;;;;;5.68;5.07;;;;;;;;;;5016896;28;20192;-46
2021/10/09 01:05:09;;;;;;;5.18;4.68;;;;;;;;;;5027936;28;20180;-47
2021/10/09 01:07:35;;;;;;;5.75;4.75;;;;;;;;;;5034572;28;20213;-46
2021/10/09 01:10:01;;;;;;;4.85;4.35;;;;;;;;;;5032894;28;20263;-46
2021/10/09 01:12:28;;;;;;;5.55;4.68;;;;;;;;;;5023325;28;20239;-46
2021/10/09 01:14:54;;;;;;;6.18;4.70;;;;;;;;;;5031159;28;20184;-46
2021/10/09 01:17:20;;;;;;;4.97;4.47;;;;;;;;;;5024165;28;20196;-46
2021/10/09 01:19:47;;;;;;;4.90;4.40;;;;;;;;;;5015318;28;20172;-46
2021/10/09 01:22:13;;;;;;;4.95;4.45;;;;;;;;;;5023409;28;20271;-46
2021/10/09 01:24:40;;;;;;;4.93;4.43;;;;;;;;;;5025769;28;20180;-46
2021/10/09 01:27:06;;;;;;;5.70;4.38;;;;;;;;;;5022046;28;20192;-46
2021/10/09 01:29:32;;;;;;;5.22;4.72;;;;;;;;;;5034720;28;20275;-46
2021/10/09 01:31:59;;;;;;;4.93;4.43;;;;;;;;;;5029431;28;20212;-46
2021/10/09 01:34:26;;;;;;;5.13;4.63;;;;;;;;;;5024277;28;20185;-46
2021/10/09 01:36:53;;;;;;;4.93;4.28;;;;;;;;;;5029383;28;20188;-46
2021/10/09 01:39:19;;;;;;;5.50;5.00;;;;;;;;;;5014961;28;20314;-46
2021/10/09 01:41:46;;;;;;;4.75;4.10;;;;;;;;;;5015320;28;20196;-46
2021/10/09 01:44:13;;;;;;;4.95;4.40;;;;;;;;;;5016284;28;20441;-46
2021/10/09 01:46:39;;;;;;;7.10;4.32;;;;;;;;;;5018121;28;20176;-46
2021/10/09 01:49:06;;;;;;;4.53;4.15;;;;;;;;;;5034863;28;20187;-46
2021/10/09 01:51:32;;;;;;;4.38;3.97;;;;;;;;;;5031521;28;20239;-46
2021/10/09 01:53:59;;;;;;;5.20;4.70;;;;;;;;;;5030812;28;20187;-46
2021/10/09 01:56:25;;;;;;;4.40;4.00;;;;;;;;;;5032678;28;20184;-46
2021/10/09 01:58:51;;;;;;;4.93;4.18;;;;;;;;;;5032788;28;20459;-46
2021/10/09 02:01:17;;;;;;;4.50;4.10;;;;;;;;;;5032916;28;20241;-46
2021/10/09 02:03:43;;;;;;;4.47;3.92;;;;;;;;;;5015805;28;20267;-46
2021/10/09 02:06:09;;;;;;;4.82;4.28;;;;;;;;;;5022026;28;20266;-46
2021/10/09 02:08:35;;;;;;;4.63;3.95;;;;;;;;;;5022513;28;20188;-46
2021/10/09 02:11:04;;;;;;;4.47;4.07;;;;;;;;;;5014687;28;20177;-46
2021/10/09 02:26:35;;;;;;;5.45;4.30;;;;;;;;;;5024918;28;20180;-46
2021/10/09 02:29:01;;;;;;;4.80;3.90;;;;;;;;;;5018478;28;20461;-46
2021/10/09 02:31:28;;;;;;;4.70;4.22;;;;;;;;;;5018520;28;20223;-46
2021/10/09 02:33:54;;;;;;;4.45;3.88;;;;;;;;;;5035532;28;20191;-46
2021/10/09 02:36:20;;;;;;;4.20;3.80;;;;;;;;;;5036892;28;20172;-46
2021/10/09 02:38:46;;;;;;;4.40;4.00;;;;;;;;;;5018386;28;20182;-46
2021/10/09 02:41:13;;;;;;;4.45;4.05;;;;;;;;;;5031308;28;20258;-46
2021/10/09 02:43:39;;;;;;;4.05;3.72;;;;;;;;;;5037651;28;20176;-46
2021/10/09 02:46:05;;;;;;;3.63;3.33;;;;;;;;;;5037507;28;20228;-46
2021/10/09 02:48:31;;;;;;;4.72;4.10;;;;;;;;;;5016143;28;20242;-46
2021/10/09 02:50:57;;;;;;;4.50;4.05;;;;;;;;;;5028450;28;20175;-46
2021/10/09 02:53:23;;;;;;;4.20;3.80;;;;;;;;;;5031113;28;20531;-46
2021/10/09 02:55:49;;;;;;;3.65;3.35;;;;;;;;;;5036159;28;20179;-46
2021/10/09 02:58:15;;;;;;;4.60;4.10;;;;;;;;;;5037103;28;20225;-46
2021/10/09 03:00:41;;;;;;;4.45;3.92;;;;;;;;;;5036688;28;20538;-46
2021/10/09 03:03:07;;;;;;;4.60;3.50;;;;;;;;;;5019415;28;20189;-46
2021/10/09 03:05:33;;;;;;;4.03;3.63;;;;;;;;;;5036279;28;20500;-46
2021/10/09 03:07:59;;;;;;;4.10;3.70;;;;;;;;;;5037581;28;20172;-46
2021/10/09 03:10:26;;;;;;;4.30;3.90;;;;;;;;;;5036841;28;20275;-46
2021/10/09 03:12:52;;;;;;;4.38;3.78;;;;;;;;;;5036725;28;20199;-46
2021/10/09 03:15:18;;;;;;;3.58;3.28;;;;;;;;;;5029639;28;20221;-46
2021/10/09 03:17:45;;;;;;;4.60;4.05;;;;;;;;;;5036986;28;20602;-46
2021/10/09 03:20:12;;;;;;;4.20;3.80;;;;;;;;;;5036383;28;20749;-46
2021/10/09 03:22:38;;;;;;;4.40;3.90;;;;;;;;;;5028178;28;20180;-46
2021/10/09 03:25:05;;;;;;;4.13;3.72;;;;;;;;;;5017082;28;20259;-46
2021/10/09 03:27:31;;;;;;;4.63;3.92;;;;;;;;;;5027545;28;20498;-46
2021/10/09 03:29:58;;;;;;;5.28;3.80;;;;;;;;;;5032353;28;20205;-46
2021/10/09 03:32:24;;;;;;;4.20;3.80;;;;;;;;;;5029867;28;20203;-46
2021/10/09 03:34:50;;;;;;;4.20;3.55;;;;;;;;;;5024341;28;20258;-46
2021/10/09 03:37:16;;;;;;;4.50;3.95;;;;;;;;;;5017561;28;20579;-46
2021/10/09 03:39:45;;;;;;;4.03;3.63;;;;;;;;;;5019585;28;20172;-46
2021/10/09 03:42:21;;;;;;;4.05;3.65;;;;;;;;;;5032269;28;20171;-46
2021/10/09 03:44:55;;;;;;;3.78;3.47;;;;;;;;;;5025219;28;20183;-46
2021/10/09 03:47:47;;;;;;;3.60;3.30;;;;;;;;;;5028853;28;20750;-46
2021/10/09 03:52:23;;;;;;;4.53;3.50;;;;;;;;;;5032969;28;20188;-46
2021/10/09 03:53:09;;;;;;;3.83;3.38;;;;;;;;;;5026950;28;20222;-46
2021/10/09 03:55:35;;;;;;;4.13;3.72;;;;;;;;;;5019996;28;20181;-46
2021/10/09 03:58:01;;;;;;;4.15;3.50;;;;;;;;;;5022274;28;20242;-46
2021/10/09 04:00:26;;;;;;;4.10;3.47;;;;;;;;;;5027380;28;20201;-46
2021/10/09 04:02:53;;;;;;;3.85;3.45;;;;;;;;;;5021190;28;20176;-46
2021/10/09 04:05:19;;;;;;;3.80;3.50;;;;;;;;;;5022801;28;20214;-46
2021/10/09 04:07:45;;;;;;;4.05;3.65;;;;;;;;;;5019427;28;20168;-46
2021/10/09 04:10:11;;;;;;;5.38;3.80;;;;;;;;;;5025554;28;20175;-46
2021/10/09 04:12:37;;;;;;;5.68;3.83;;;;;;;;;;5024027;28;20210;-46
2021/10/09 04:15:04;;;;;;;6.05;3.78;;;;;;;;;;5028282;28;20263;-46
2021/10/09 04:17:30;;;;;;;5.28;3.80;;;;;;;;;;5026062;28;20517;-45
2021/10/09 04:19:56;;;;;;;5.15;3.88;;;;;;;;;;5030148;28;20270;-46
2021/10/09 04:22:22;;;;;;;4.18;3.55;;;;;;;;;;5035325;28;20186;-46
2021/10/09 04:24:48;;;;;;;4.30;3.90;;;;;;;;;;5035534;28;20188;-45
2021/10/09 04:27:14;;;;;;;6.30;4.28;;;;;;;;;;5035797;28;20266;-45
2021/10/09 04:29:40;;;;;;;5.97;3.92;;;;;;;;;;5035281;28;20178;-45
2021/10/09 04:32:06;;;;;;;6.07;3.90;;;;;;;;;;5030599;28;20215;-45
2021/10/09 04:34:32;;;;;;;5.55;4.15;;;;;;;;;;5034744;28;20168;-45
2021/10/09 04:36:58;;;;;;;5.13;4.00;;;;;;;;;;5031595;28;20447;-45
2021/10/09 04:39:24;;;;;;;6.82;4.25;;;;;;;;;;5016377;28;20165;-46
2021/10/09 04:41:51;;;;;;;6.40;4.18;;;;;;;;;;5016004;28;20188;-46
2021/10/09 04:44:17;;;;;;;6.28;3.83;;;;;;;;;;5014483;28;20559;-46
2021/10/09 04:46:43;;;;;;;6.85;3.72;;;;;;;;;;5015950;28;20177;-46
2021/10/09 04:49:09;;;;;;;5.00;4.00;;;;;;;;;;5024091;28;20187;-46
2021/10/09 04:51:36;;;;;;;6.00;4.13;;;;;;;;;;5030003;28;20298;-46
2021/10/09 04:54:02;;;;;;;6.55;4.45;;;;;;;;;;5018876;28;20175;-46
2021/10/09 04:56:28;;;;;;;5.70;4.05;;;;;;;;;;5034661;28;20176;-46
2021/10/09 04:58:54;;;;;;;6.55;4.05;;;;;;;;;;5029898;28;20180;-46
2021/10/09 05:01:20;;;;;;;5.75;4.13;;;;;;;;;;5016373;28;20200;-46
2021/10/09 05:03:46;;;;;;;5.60;4.35;;;;;;;;;;5026763;28;20188;-46
2021/10/09 05:06:12;;;;;;;5.90;3.42;;;;;;;;;;5033206;28;20274;-46
2021/10/09 05:08:38;;;;;;;6.60;4.13;;;;;;;;;;5018728;28;20191;-46
2021/10/09 05:11:04;;;;;;;5.07;4.00;;;;;;;;;;5028142;28;20168;-47
2021/10/09 05:13:30;;;;;;;6.07;4.10;;;;;;;;;;5033571;28;20204;-46
2021/10/09 05:15:56;;;;;;;4.85;4.03;;;;;;;;;;5035126;28;20176;-46
2021/10/09 05:18:22;;;;;;;4.60;3.92;;;;;;;;;;5018403;28;20196;-46
2021/10/09 05:20:48;;;;;;;5.85;4.28;;;;;;;;;;5033869;28;20267;-46
2021/10/09 05:23:14;;;;;;;6.65;4.38;;;;;;;;;;5018158;28;20176;-45
2021/10/09 05:25:42;;;;;;;5.57;4.53;;;;;;;;;;5014951;28;20192;-45
2021/10/09 05:28:17;;;;;;;4.72;4.20;;;;;;;;;;5024571;28;20207;-45
2021/10/09 05:30:49;;;;;;;5.38;4.53;;;;;;;;;;5034006;28;20190;-45
2021/10/09 05:33:23;;;;;;;5.75;3.80;;;;;;;;;;5030607;28;20618;-45
2021/10/09 05:35:49;;;;;;;7.35;4.43;;;;;;;;;;5026409;28;20176;-45
2021/10/09 05:38:15;;;;;;;6.40;4.15;;;;;;;;;;5015301;28;20247;-45
2021/10/09 05:40:41;;;;;;;5.22;3.95;;;;;;;;;;5017791;28;20211;-45
2021/10/09 05:43:07;;;;;;;5.28;4.10;;;;;;;;;;5028018;28;20266;-45
2021/10/09 05:45:34;;;;;;;4.30;3.53;;;;;;;;;;5035085;28;20251;-46
2021/10/09 05:48:00;;;;;;;5.03;3.90;;;;;;;;;;5023217;28;20187;-46
2021/10/09 05:50:32;;;;;;;6.15;3.97;;;;;;;;;;5024841;28;20192;-46
2021/10/09 05:53:40;;;;;;;4.30;3.90;;;;;;;;;;5021542;28;20243;-46
2021/10/09 05:56:18;;;;;;;5.13;3.83;;;;;;;;;;5019953;28;20198;-46
2021/10/09 06:50:03;;;;;;;7.53;4.43;;;;;;;;;;5033845;28;20195;-45
2021/10/09 07:00:43;;;;;;;7.43;4.38;;;;;;;;;;5014359;28;20204;-45
2021/10/09 07:03:09;;;;;;;5.28;4.22;;;;;;;;;;5013897;28;20455;-46
2021/10/09 07:05:41;;;;;;;6.57;4.20;;;;;;;;;;5014136;28;20195;-46
2021/10/09 07:08:10;;;;;;;9.82;4.30;;;;;;;;;;5018123;28;20246;-46
2021/10/09 07:10:42;;;;;;;8.95;4.35;;;;;;;;;;5026399;28;20219;-46
2021/10/09 07:13:09;;;;;;;9.43;4.80;;;;;;;;;;5037059;28;20210;-46
2021/10/09 07:15:37;;;;;;;5.18;3.80;;;;;;;;;;5036844;28;20179;-46
2021/10/09 07:18:04;;;;;;;7.63;4.22;;;;;;;;;;5035532;28;20175;-46
2021/10/09 07:20:31;;;;;;;4.90;3.47;;;;;;;;;;5037629;28;20411;-46
2021/10/09 07:22:57;;;;;;;6.28;4.38;;;;;;;;;;5029381;28;20563;-46
2021/10/09 07:25:23;;;;;;;5.47;3.85;;;;;;;;;;5017428;28;20522;-46
2021/10/09 07:27:49;;;;;;;6.65;4.10;;;;;;;;;;5017618;28;20191;-46
2021/10/09 07:30:15;;;;;;;7.25;4.25;;;;;;;;;;5017437;28;20215;-46
2021/10/09 07:32:44;;;;;;;4.90;3.75;;;;;;;;;;5022720;28;20218;-46
2021/10/09 07:35:10;;;;;;;5.68;3.83;;;;;;;;;;5027564;28;20176;-46
2021/10/09 07:37:36;;;;;;;6.05;4.03;;;;;;;;;;5017244;28;20173;-46
2021/10/09 07:40:02;;;;;;;5.43;3.92;;;;;;;;;;5017314;28;20801;-46
2021/10/09 07:42:28;;;;;;;6.95;4.22;;;;;;;;;;5027335;28;20185;-46
2021/10/09 07:44:54;;;;;;;5.50;4.00;;;;;;;;;;5016543;28;20181;-46
2021/10/09 07:47:20;;;;;;;7.72;4.65;;;;;;;;;;5018454;28;20207;-46
2021/10/09 07:49:46;;;;;;;5.03;4.32;;;;;;;;;;5016874;28;20180;-45
2021/10/09 07:52:12;;;;;;;5.95;3.90;;;;;;;;;;5025959;28;20210;-45
2021/10/09 07:54:38;;;;;;;5.88;3.92;;;;;;;;;;5027304;28;20826;-45
2021/10/09 07:57:05;;;;;;;4.82;4.25;;;;;;;;;;5023501;28;20177;-45
2021/10/09 07:59:31;;;;;;;6.82;3.95;;;;;;;;;;5022214;28;20203;-47
2021/10/09 08:01:57;;;;;;;6.43;4.07;;;;;;;;;;5030235;28;20239;-46
2021/10/09 08:04:23;;;;;;;4.13;3.72;;;;;;;;;;5017377;28;20172;-46
2021/10/09 08:06:49;;;;;;;5.50;3.90;;;;;;;;;;5016874;28;20207;-46
2021/10/09 08:09:15;;;;;;;4.65;3.80;;;;;;;;;;5018647;28;20267;-45
2021/10/09 08:11:41;;;;;;;5.55;4.05;;;;;;;;;;5035125;28;20221;-45
2021/10/09 08:14:08;;;;;;;5.25;3.75;;;;;;;;;;5035987;28;20168;-45
2021/10/09 08:16:34;;;;;;;6.47;4.28;;;;;;;;;;5036000;28;20164;-45
2021/10/09 08:19:01;;;;;;;5.90;4.05;;;;;;;;;;5034145;28;20195;-45
2021/10/09 08:21:29;;;;;;;4.20;3.50;;;;;;;;;;5034952;28;20259;-45
2021/10/09 08:39:43;;;;;;;4.40;3.75;;;;;;;;;;5018282;28;20608;-46
2021/10/09 08:42:10;;;;;;;3.65;3.28;;;;;;;;;;5015983;28;20204;-45
2021/10/09 08:44:36;;;;;;;5.63;3.90;;;;;;;;;;5015807;28;20181;-45
2021/10/09 08:47:03;;;;;;;5.22;3.92;;;;;;;;;;5035127;28;20203;-45
2021/10/09 08:49:32;;;;;;;4.70;3.72;;;;;;;;;;5022348;28;20471;-45
2021/10/09 08:51:58;;;;;;;5.65;4.07;;;;;;;;;;5029413;28;20200;-45
2021/10/09 08:54:33;;;;;;;4.35;3.63;;;;;;;;;;5028370;28;20189;-45
2021/10/09 08:57:08;;;;;;;4.47;3.80;;;;;;;;;;5027777;28;20184;-45
2021/10/09 08:59:34;;;;;;;6.60;3.80;;;;;;;;;;5015773;28;20164;-45
2021/10/09 09:02:11;;;;;;;4.88;3.60;;;;;;;;;;5015543;28;20196;-45
2021/10/09 09:05:03;;;;;;;4.25;3.72;;;;;;;;;;5015872;28;20168;-45
2021/10/09 09:27:43;;;;;;;5.05;3.90;;;;;;;;;;5021898;28;20198;-45
2021/10/09 09:33:17;;;;;;;5.22;4.00;;;;;;;;;;5032093;28;20822;-45
2021/10/09 09:35:25;;;;;;;5.55;3.55;;;;;;;;;;5025750;28;20197;-45
2021/10/09 09:40:41;;;;;;;5.35;4.05;;;;;;;;;;5015554;28;20176;-45
2021/10/09 09:43:07;;;;;;;4.22;3.83;;;;;;;;;;5014883;28;20172;-45
2021/10/09 09:45:34;;;;;;;5.30;3.72;;;;;;;;;;5014957;28;20184;-47
2021/10/09 09:48:00;;;;;;;6.00;4.05;;;;;;;;;;5029337;28;20184;-46
2021/10/09 09:50:27;;;;;;;5.55;4.45;;;;;;;;;;5021710;28;20196;-46
2021/10/09 09:52:54;;;;;;;5.03;4.00;;;;;;;;;;5014928;28;20200;-46
2021/10/09 09:55:20;;;;;;;4.18;3.78;;;;;;;;;;5028216;28;20483;-46
2021/10/09 09:57:48;;;;;;;4.43;3.67;;;;;;;;;;5034181;28;20176;-46
2021/10/09 10:00:15;;;;;;;6.05;3.80;;;;;;;;;;5034672;28;20231;-46
2021/10/09 10:02:51;;;;;;;5.35;3.83;;;;;;;;;;5034423;28;20183;-45
2021/10/09 10:05:18;;;;;;;4.35;3.78;;;;;;;;;;5016981;28;20473;-45
2021/10/09 10:07:45;;;;;;;4.63;3.67;;;;;;;;;;5016230;28;20181;-45
2021/10/09 10:10:11;;;;;;;4.25;3.70;;;;;;;;;;5015002;28;20172;-45
2021/10/09 10:12:38;;;;;;;5.47;3.95;;;;;;;;;;5014628;28;20215;-45
2021/10/09 10:15:07;;;;;;;4.57;3.85;;;;;;;;;;5018462;28;20172;-45
2021/10/09 10:17:37;;;;;;;5.47;3.70;;;;;;;;;;5028549;28;20258;-45
2021/10/09 10:20:04;;;;;;;4.88;3.72;;;;;;;;;;5014889;28;20161;-46
2021/10/09 10:22:36;;;;;;;4.43;3.78;;;;;;;;;;5015781;28;20272;-46
2021/10/09 10:25:22;;;;;;;5.72;4.00;;;;;;;;;;5017356;28;20204;-46
2021/10/09 10:28:18;;;;;;;5.18;4.03;;;;;;;;;;5033106;28;20241;-46
2021/10/09 10:30:45;;;;;;;4.47;3.67;;;;;;;;;;5029827;28;20184;-46
2021/10/09 10:33:11;;;;;;;4.05;3.65;;;;;;;;;;5029864;28;20202;-46
2021/10/09 10:35:37;;;;;;;4.82;4.00;;;;;;;;;;5027908;28;20171;-46
2021/10/09 10:38:09;;;;;;;4.53;3.80;;;;;;;;;;5032444;28;20183;-45
2021/10/09 10:40:44;;;;;;;5.22;3.97;;;;;;;;;;5025119;28;20293;-45
2021/10/09 10:43:29;;;;;;;5.05;3.95;;;;;;;;;;5020880;28;20198;-45
2021/10/09 10:45:55;;;;;;;3.83;3.42;;;;;;;;;;5017689;28;20200;-45
2021/10/09 10:48:40;;;;;;;4.10;3.53;;;;;;;;;;5037776;28;20650;-45
2021/10/09 10:51:14;;;;;;;4.70;3.70;;;;;;;;;;5038223;28;20183;-45
2021/10/09 10:57:02;;;;;;;4.22;3.80;;;;;;;;;;5020879;28;20293;-45
2021/10/09 10:59:31;;;;;;;5.60;3.65;;;;;;;;;;5038005;28;20180;-45
2021/10/09 11:02:09;;;;;;;4.72;3.75;;;;;;;;;;5022611;28;20235;-45
2021/10/09 11:04:35;;;;;;;4.65;3.17;;;;;;;;;;5020491;28;20180;-46
2021/10/09 11:07:02;;;;;;;7.10;3.75;;;;;;;;;;5025904;28;20189;-46
2021/10/09 11:09:28;;;;;;;5.88;4.00;;;;;;;;;;5019157;28;20187;-46
2021/10/09 11:11:54;;;;;;;4.45;3.55;;;;;;;;;;5021058;28;20234;-45
2021/10/09 11:14:25;;;;;;;3.95;3.55;;;;;;;;;;5025167;28;20557;-45
2021/10/09 11:16:59;;;;;;;4.38;3.58;;;;;;;;;;5032115;28;20223;-45
2021/10/09 11:19:47;;;;;;;4.85;3.35;;;;;;;;;;5017703;28;20168;-45
2021/10/09 11:22:15;;;;;;;4.07;3.40;;;;;;;;;;5017664;28;20177;-46
2021/10/09 11:24:41;;;;;;;3.58;3.10;;;;;;;;;;5029045;28;20212;-46
2021/10/09 11:27:07;;;;;;;6.65;3.20;;;;;;;;;;5036725;28;20229;-46
2021/10/09 11:29:33;;;;;;;3.83;3.42;;;;;;;;;;5029610;28;20238;-46
2021/10/09 11:32:06;;;;;;;4.50;3.55;;;;;;;;;;5023202;28;20211;-46
2021/10/09 11:34:32;;;;;;;3.83;3.33;;;;;;;;;;5029405;28;20172;-45
2021/10/09 11:36:58;;;;;;;4.32;3.47;;;;;;;;;;5023162;28;20219;-45
2021/10/09 11:39:27;;;;;;;3.92;3.15;;;;;;;;;;5037217;28;20199;-45
2021/10/09 11:42:12;;;;;;;3.40;3.10;;;;;;;;;;5035502;28;20788;-46
2021/10/09 11:44:45;;;;;;;3.88;3.22;;;;;;;;;;5033091;28;20175;-46
2021/10/09 11:55:16;;;;;;;3.45;3.13;;;;;;;;;;5029615;28;20296;-45
2021/10/09 11:57:42;;;;;;;3.30;3.00;;;;;;;;;;5026693;28;20184;-45
2021/10/09 12:00:27;;;;;;;3.80;3.40;;;;;;;;;;5016836;28;20181;-45
2021/10/09 12:02:53;;;;;;;4.50;3.38;;;;;;;;;;5016041;28;20185;-45
2021/10/09 12:05:19;;;;;;;4.22;3.30;;;;;;;;;;5016777;28;20263;-45
2021/10/09 12:08:03;;;;;;;5.05;3.28;;;;;;;;;;5016793;28;20184;-45
2021/10/09 12:10:29;;;;;;;4.10;3.40;;;;;;;;;;5016787;28;20181;-45
2021/10/09 12:13:05;;;;;;;4.63;3.30;;;;;;;;;;5023263;28;20250;-45
2021/10/09 12:15:36;;;;;;;4.20;3.47;;;;;;;;;;5032006;28;20482;-45
2021/10/09 12:18:02;;;;;;;4.60;3.38;;;;;;;;;;5035717;28;20177;-45
2021/10/09 12:20:29;;;;;;;5.40;3.22;;;;;;;;;;5036453;28;20582;-45
2021/10/09 12:22:59;;;;;;;4.45;3.45;;;;;;;;;;5021699;28;20563;-45
2021/10/09 12:25:26;;;;;;;3.95;3.38;;;;;;;;;;5016513;28;20208;-45
2021/10/09 12:27:55;;;;;;;4.15;3.60;;;;;;;;;;5033327;28;20222;-45
2021/10/09 12:30:21;;;;;;;5.20;3.20;;;;;;;;;;5036160;28;20203;-45
2021/10/09 12:32:51;;;;;;;4.28;3.35;;;;;;;;;;5033492;28;20237;-45
2021/10/09 12:35:20;;;;;;;3.28;2.97;;;;;;;;;;5033395;28;20233;-45
2021/10/09 12:38:13;;;;;;;4.95;3.03;;;;;;;;;;5016315;28;20505;-45
2021/10/09 12:40:43;;;;;;;4.00;3.25;;;;;;;;;;5014988;28;20575;-45
2021/10/09 12:43:13;;;;;;;3.67;3.20;;;;;;;;;;5016775;28;20196;-45
2021/10/09 12:45:40;;;;;;;3.38;3.08;;;;;;;;;;5016635;28;20455;-46
2021/10/09 12:48:06;;;;;;;3.30;3.00;;;;;;;;;;5035179;28;20194;-46
2021/10/09 12:50:34;;;;;;;4.15;3.10;;;;;;;;;;5033766;28;20176;-46
2021/10/09 12:53:01;;;;;;;2.75;2.53;;;;;;;;;;5020130;28;20203;-46
2021/10/09 12:55:28;;;;;;;3.90;3.03;;;;;;;;;;5031056;28;20195;-46
2021/10/09 12:57:56;;;;;;;3.47;3.13;;;;;;;;;;5032379;28;20171;-45
2021/10/09 13:00:23;;;;;;;3.10;2.80;;;;;;;;;;5034383;28;20183;-46
2021/10/09 13:02:52;;;;;;;3.25;2.95;;;;;;;;;;5027352;28;20189;-46
2021/10/09 13:05:19;;;;;;;3.45;2.60;;;;;;;;;;5014687;28;20169;-46
2021/10/09 13:07:45;;;;;;;2.75;2.55;;;;;;;;;;5031046;28;20196;-46
2021/10/09 13:10:11;;;;;;;3.13;2.83;;;;;;;;;;5035452;28;20887;-45
2021/10/09 13:12:38;;;;;;;4.10;3.05;;;;;;;;;;5030526;28;20207;-45
2021/10/09 13:15:04;;;;;;;2.97;2.67;;;;;;;;;;5034704;28;20176;-46
2021/10/09 13:17:30;;;;;;;3.05;2.75;;;;;;;;;;5034947;28;20482;-46
2021/10/09 13:19:56;;;;;;;3.03;2.72;;;;;;;;;;5035000;28;20854;-46
2021/10/09 13:22:22;;;;;;;3.35;2.88;;;;;;;;;;5023678;28;20455;-45
2021/10/09 13:24:48;;;;;;;3.28;2.83;;;;;;;;;;5016304;28;20231;-46
2021/10/09 13:27:14;;;;;;;3.03;2.72;;;;;;;;;;5024564;28;20485;-44
2021/10/09 13:29:40;;;;;;;3.78;2.55;;;;;;;;;;5015341;28;20210;-45
2021/10/09 13:32:06;;;;;;;3.00;2.70;;;;;;;;;;5019026;28;20609;-45
2021/10/09 13:34:32;;;;;;;3.53;2.95;;;;;;;;;;5033463;28;20187;-45
2021/10/09 13:36:59;;;;;;;3.10;2.80;;;;;;;;;;5033811;28;20184;-45
2021/10/09 13:39:25;;;;;;;3.20;2.90;;;;;;;;;;5034328;28;20206;-45
2021/10/09 13:41:51;;;;;;;3.13;2.60;;;;;;;;;;5024105;28;20200;-45
2021/10/09 13:44:17;;;;;;;2.83;2.60;;;;;;;;;;5023958;28;20192;-46
2021/10/09 13:46:44;;;;;;;2.83;2.60;;;;;;;;;;5034160;28;20194;-46
2021/10/09 13:49:11;;;;;;;2.95;2.65;;;;;;;;;;5033506;28;20175;-46
2021/10/09 13:51:37;;;;;;;2.70;2.50;;;;;;;;;;5033746;28;20611;-46
2021/10/09 13:54:03;;;;;;;2.72;2.50;;;;;;;;;;5029596;28;20307;-46
2021/10/09 13:56:29;;;;;;;3.10;2.80;;;;;;;;;;5028371;28;20217;-46
2021/10/09 13:58:55;;;;;;;2.90;2.70;;;;;;;;;;5032330;28;20255;-46
2021/10/09 14:01:21;;;;;;;2.17;2.03;;;;;;;;;;5033679;28;20285;-46
2021/10/09 14:03:47;;;;;;;2.72;2.28;;;;;;;;;;5032894;28;20466;-46
2021/10/09 14:06:13;;;;;;;2.97;2.67;;;;;;;;;;5033369;28;20221;-46
2021/10/09 14:08:39;;;;;;;2.60;2.40;;;;;;;;;;5034460;28;20262;-46
2021/10/09 14:11:05;;;;;;;2.40;2.20;;;;;;;;;;5017544;28;20180;-46
2021/10/09 14:13:32;;;;;;;2.28;2.08;;;;;;;;;;5014255;28;20212;-46
2021/10/09 14:15:58;;;;;;;2.88;2.60;;;;;;;;;;5025958;28;20283;-46
2021/10/09 14:18:24;;;;;;;3.33;2.20;;;;;;;;;;5033280;28;20289;-46
2021/10/09 14:20:51;;;;;;;4.75;2.25;;;;;;;;;;5040381;28;20446;-46
2021/10/09 14:23:18;;;;;;;3.88;2.78;;;;;;;;;;5024935;28;20202;-46
2021/10/09 14:25:44;;;;;;;3.35;2.25;;;;;;;;;;5026755;28;20208;-46
2021/10/09 14:28:10;;;;;;;2.97;2.30;;;;;;;;;;5020646;28;20339;-46
2021/10/09 14:30:37;;;;;;;3.75;2.78;;;;;;;;;;5021201;28;20186;-46
2021/10/09 14:33:04;;;;;;;3.85;2.42;;;;;;;;;;5026173;28;20215;-45
2021/10/09 14:35:30;;;;;;;4.95;2.67;;;;;;;;;;5031771;28;20186;-45
2021/10/09 14:37:56;;;;;;;4.32;2.38;;;;;;;;;;5037238;28;20188;-45
2021/10/09 14:40:22;;;;;;;5.10;2.40;;;;;;;;;;5021067;28;20195;-45
2021/10/09 14:42:48;;;;;;;5.28;2.45;;;;;;;;;;5020313;28;20188;-45
2021/10/09 14:45:16;;;;;;;5.18;2.20;;;;;;;;;;5020993;28;20222;-45
2021/10/09 14:47:52;;;;;;;3.67;2.50;;;;;;;;;;5022991;28;20185;-45
2021/10/09 14:53:20;;;;;;;3.83;2.22;;;;;;;;;;5029307;28;20528;-46
2021/10/09 14:56:14;;;;;;;2.70;2.10;;;;;;;;;;5022362;28;20200;-46
2021/10/09 15:01:53;;;;;;;3.63;2.25;;;;;;;;;;5026931;28;20227;-46
2021/10/09 15:18:18;;;;;;;3.33;2.20;;;;;;;;;;5032975;28;20229;-46
2021/10/09 15:20:44;;;;;;;2.30;2.10;;;;;;;;;;5033194;28;20451;-46
2021/10/09 15:23:10;;;;;;;6.00;2.05;;;;;;;;;;5029394;28;20227;-46
2021/10/09 15:25:36;;;;;;;3.70;2.38;;;;;;;;;;5024060;28;20214;-46
2021/10/09 15:28:02;;;;;;;2.63;2.20;;;;;;;;;;5045031;28;20183;-46
2021/10/09 15:30:28;;;;;;;3.10;2.28;;;;;;;;;;5051962;28;20206;-45
2021/10/09 15:32:54;;;;;;;5.00;2.10;;;;;;;;;;5028181;28;20243;-45
2021/10/09 15:35:20;;;;;;;5.28;2.10;;;;;;;;;;5031185;28;20203;-45
2021/10/09 15:37:46;;;;;;;4.90;2.20;;;;;;;;;;5018725;28;20291;-45
2021/10/09 15:40:13;;;;;;;3.47;2.55;;;;;;;;;;5018889;28;20177;-45
2021/10/09 15:42:39;;;;;;;4.53;2.03;;;;;;;;;;5017420;28;20271;-45
2021/10/09 15:45:06;;;;;;;3.60;2.53;;;;;;;;;;5019832;28;20180;-45
2021/10/09 15:47:32;;;;;;;6.43;2.20;;;;;;;;;;5028399;28;20188;-45
2021/10/09 15:49:58;;;;;;;5.40;2.22;;;;;;;;;;5027703;28;20188;-45
2021/10/09 15:52:24;;;;;;;5.13;2.10;;;;;;;;;;5037037;28;20203;-45
2021/10/09 15:54:50;;;;;;;3.25;1.90;;;;;;;;;;5026292;28;20208;-45
2021/10/09 15:57:16;;;;;;;2.38;2.10;;;;;;;;;;5024243;28;20555;-45
2021/10/09 15:59:42;;;;;;;3.35;1.88;;;;;;;;;;5031995;28;20180;-45
2021/10/09 16:02:08;;;;;;;3.17;2.17;;;;;;;;;;5020710;28;20184;-46
2021/10/09 16:04:34;;;;;;;4.68;2.35;;;;;;;;;;5026319;28;20187;-46
2021/10/09 16:07:00;;;;;;;2.92;2.17;;;;;;;;;;5032743;28;20188;-46
2021/10/09 16:09:26;;;;;;;4.43;2.20;;;;;;;;;;5036694;28;20179;-46
2021/10/09 16:11:52;;;;;;;3.70;2.45;;;;;;;;;;5031396;28;20183;-46
2021/10/09 16:14:19;;;;;;;4.18;2.40;;;;;;;;;;5032027;28;20184;-46
2021/10/09 16:16:45;;;;;;;6.18;2.78;;;;;;;;;;5034391;28;20570;-46
2021/10/09 16:19:11;;;;;;;4.15;2.50;;;;;;;;;;5021475;28;20177;-46
2021/10/09 16:21:37;;;;;;;3.85;2.63;;;;;;;;;;5016683;28;20207;-46
2021/10/09 16:24:03;;;;;;;3.53;2.45;;;;;;;;;;5015537;28;20555;-46
2021/10/09 16:26:29;;;;;;;6.97;2.45;;;;;;;;;;5015606;28;20172;-46
2021/10/09 16:28:55;;;;;;;4.97;2.72;;;;;;;;;;5016187;28;20447;-46
2021/10/09 16:31:24;;;;;;;4.97;3.10;;;;;;;;;;5016665;28;20267;-46
2021/10/09 16:33:52;;;;;;;4.25;3.80;;;;;;;;;;5028309;28;20463;-46
2021/10/09 16:36:18;;;;;;;12.48;4.95;;;;;;;;;;5020919;28;20187;-46
2021/10/09 16:38:44;;;;;;;25.50;9.20;;;;;;;;;;5022125;28;20172;-46
2021/10/09 16:41:10;;;;;;;46.65;14.13;;;;;;;;;;5028969;28;20179;-46
2021/10/09 16:43:36;;;;;;;53.25;17.42;;;;;;;;;;5033541;28;20172;-46
2021/10/09 16:46:02;;;;;;;83.82;22.73;;;;;;;;;;5016679;28;20191;-46
2021/10/09 16:48:28;;;;;;;79.57;23.70;;;;;;;;;;5017270;28;20493;-46
2021/10/09 16:50:54;;;;;;;103.25;27.38;;;;;;;;;;5018294;28;20184;-47
2021/10/09 16:53:20;;;;;;;105.28;28.83;;;;;;;;;;5021228;28;20539;-46
2021/10/09 16:55:46;;;;;;;106.43;29.15;;;;;;;;;;5019681;28;20201;-46
2021/10/09 16:58:12;;;;;;;100.03;28.45;;;;;;;;;;5035534;28;20172;-46
2021/10/09 17:00:38;;;;;;;99.05;27.85;;;;;;;;;;5029871;28;20375;-46
2021/10/09 17:03:04;;;;;;;112.70;29.02;;;;;;;;;;5026556;28;20535;-46
2021/10/09 17:05:30;;;;;;;104.68;29.48;;;;;;;;;;5023469;28;20188;-46
2021/10/09 17:07:56;;;;;;;102.18;30.23;;;;;;;;;;5020499;28;20189;-46
2021/10/09 17:10:22;;;;;;;113.03;31.70;;;;;;;;;;5035256;28;20555;-46